Terminal Aerodrome Forecast
Issued by NWS Boston, MA

Home | Current Version | Previous Version | Text Only | Print | Product List | Glossary Off
Versions: 1 2 3 4 5 6 7 8 9 10 11 12 13 14 15 16 17 18 19 20 21 22 23 24 25 26 27 28 29 30 31 32 33 34 35 36 37 38 39 40 41 42
000 FTUS41 KBOX 270545 TAFORH TAF KORH 270545Z 2706/2806 35012G22KT 1 1/2SM -SN BR OVC012 FM270900 32010KT P6SM OVC015 FM271200 30007KT P6SM BKN025 FM272100 29004KT P6SM OVC015 FM280000 30005KT P6SM OVC025 FM280300 30005KT P6SM OVC015=

USA.gov is the U.S. government's official web portal to all federal, state and local government web resources and services.